Time;durP1;ratioP1;P1;durP2;ratioP2;P2;SDS_P1;SDS_P2;PMS_P1;PMS_P2;Temp;Humidity;BMP_temperature;BMP_pressure;BME280_temperature;BME280_humidity;BME280_pressure;Samples;Min_cycle;Max_cycle;Signal;HPM_P1;HPM_P2
2023/01/11 00:00:44;;;;;;;6.45;5.82;;;;;;;7.21;100.00;100345.03;4919458;29;20051;-83
2023/01/11 00:03:12;;;;;;;7.22;6.53;;;;;;;7.22;100.00;100358.16;4931729;29;20032;-81
2023/01/11 00:05:41;;;;;;;9.40;6.72;;;;;;;7.25;100.00;100351.19;4901217;29;20541;-83
2023/01/11 00:08:09;;;;;;;7.93;7.13;;;;;;;7.26;100.00;100347.69;4901827;29;20078;-81
2023/01/11 00:10:37;;;;;;;8.20;6.57;;;;;;;7.28;100.00;100328.50;4894452;29;20052;-82
2023/01/11 00:13:04;;;;;;;7.32;6.43;;;;;;;7.31;100.00;100330.25;4890964;29;20054;-82
2023/01/11 00:15:34;;;;;;;7.32;6.70;;;;;;;7.32;100.00;100330.28;4917365;29;20051;-82
2023/01/11 00:18:02;;;;;;;;;;;;;;;7.35;100.00;100321.56;4911390;29;20056;-82
2023/01/11 00:20:30;;;;;;;9.05;6.50;;;;;;;7.35;100.00;100332.94;4893549;29;19926;-82
2023/01/11 00:22:57;;;;;;;9.23;6.95;;;;;;;7.36;100.00;100318.94;4912975;29;20064;-83
2023/01/11 00:25:25;;;;;;;8.27;6.90;;;;;;;7.38;100.00;100327.69;4911431;29;20052;-82
2023/01/11 00:27:54;;;;;;;8.38;6.38;;;;;;;7.40;100.00;100310.22;4866798;29;20063;-82
2023/01/11 00:30:22;;;;;;;7.75;6.47;;;;;;;7.43;100.00;100301.53;4899186;29;20088;-82
2023/01/11 00:32:57;;;;;;;8.18;6.43;;;;;;;7.45;100.00;100291.03;4909351;29;20059;-82
2023/01/11 00:35:26;;;;;;;6.43;5.93;;;;;;;7.47;100.00;100286.72;4891174;29;20064;-80
2023/01/11 00:37:54;;;;;;;6.00;5.32;;;;;;;7.49;100.00;100285.84;4899347;29;20074;-81
2023/01/11 00:40:22;;;;;;;5.63;5.13;;;;;;;7.51;100.00;100284.09;4925409;29;20055;-81
2023/01/11 00:48:22;;;;;;;7.47;5.97;;;;;;;7.59;100.00;100278.91;4918351;29;20052;-83
2023/01/11 00:50:54;;;;;;;5.45;4.95;;;;;;;7.59;100.00;100266.66;4879926;29;20063;-83
2023/01/11 00:53:21;;;;;;;8.98;6.05;;;;;;;7.63;100.00;100266.69;4912043;29;20434;-81
2023/01/11 00:55:49;;;;;;;5.72;5.22;;;;;;;7.65;100.00;100257.97;4895601;29;20062;-81
2023/01/11 00:58:17;;;;;;;7.45;5.85;;;;;;;7.67;100.00;100271.09;4886414;29;20039;-81
2023/01/11 01:00:44;;;;;;;5.55;5.05;;;;;;;7.68;100.00;100268.47;4899564;29;20056;-81
2023/01/11 01:03:11;;;;;;;6.05;5.55;;;;;;;7.70;100.00;100274.59;4885072;29;20052;-81
2023/01/11 01:05:42;;;;;;;6.53;5.93;;;;;;;7.72;100.00;100275.50;4880146;29;20524;-82
2023/01/11 01:08:09;;;;;;;6.43;5.60;;;;;;;7.74;100.00;100276.38;4884832;29;20060;-81
2023/01/11 01:10:36;;;;;;;5.50;5.00;;;;;;;7.76;100.00;100266.75;4917228;29;20055;-81
2023/01/11 01:15:56;;;;;;;6.30;5.70;;;;;;;7.79;100.00;100274.66;4916094;29;20063;-82
2023/01/11 01:18:24;;;;;;;6.10;5.60;;;;;;;7.83;100.00;100277.31;4917048;29;20051;-82
2023/01/11 01:20:51;;;;;;;6.20;5.60;;;;;;;7.84;100.00;100273.81;4898936;29;20052;-82
2023/01/11 01:23:18;;;;;;;5.28;4.68;;;;;;;7.85;100.00;100281.69;4893064;29;20388;-82
2023/01/11 01:25:46;;;;;;;6.15;5.22;;;;;;;7.87;100.00;100272.06;4921621;29;20051;-83
2023/01/11 01:28:13;;;;;;;5.88;5.38;;;;;;;7.87;100.00;100277.31;4876093;29;20505;-82
2023/01/11 01:30:41;;;;;;;5.57;5.10;;;;;;;7.89;100.00;100290.44;4894584;29;20524;-82
2023/01/11 01:33:09;;;;;;;6.10;5.60;;;;;;;7.91;100.00;100283.47;4897493;29;20063;-82
2023/01/11 01:35:37;;;;;;;5.15;4.65;;;;;;;7.93;100.00;100286.97;4895109;29;20059;-82
2023/01/11 01:38:04;;;;;;;6.43;5.82;;;;;;;7.95;100.00;100282.59;4887593;29;20071;-82
2023/01/11 01:40:40;;;;;;;5.95;5.40;;;;;;;7.96;100.00;100285.25;4908335;29;20063;-82
2023/01/11 01:43:15;;;;;;;5.68;5.18;;;;;;;7.97;100.00;100279.09;4906138;29;20052;-82
2023/01/11 01:45:43;;;;;;;5.65;5.15;;;;;;;7.99;100.00;100276.50;4921706;29;20520;-82
2023/01/11 01:48:14;;;;;;;5.63;4.93;;;;;;;8.00;100.00;100276.50;4887489;29;20060;-82
2023/01/11 01:50:54;;;;;;;5.10;4.60;;;;;;;8.02;100.00;100271.28;4914289;29;20055;-82
2023/01/11 01:53:39;;;;;;;4.63;4.22;;;;;;;8.05;100.00;100276.50;4885385;29;20055;-82
2023/01/11 01:56:23;;;;;;;4.97;4.57;;;;;;;8.06;100.00;100275.66;4908952;29;20047;-82
2023/01/11 01:58:58;;;;;;;7.05;5.35;;;;;;;8.08;100.00;100279.16;4935723;29;20051;-83
2023/01/11 02:04:22;;;;;;;5.82;5.22;;;;;;;8.09;100.00;100277.41;4900143;29;20037;-82
2023/01/11 02:06:56;;;;;;;5.53;5.07;;;;;;;8.11;100.00;100268.69;4901659;29;20056;-83
2023/01/11 02:09:39;;;;;;;5.25;4.78;;;;;;;8.14;100.00;100273.06;4898218;29;20044;-83
2023/01/11 02:12:07;;;;;;;5.07;4.60;;;;;;;8.15;100.00;100262.56;4912965;29;20056;-82
2023/01/11 02:14:36;;;;;;;6.03;5.13;;;;;;;8.16;100.00;100269.56;4911904;29;20052;-83
2023/01/11 02:17:04;;;;;;;6.07;4.78;;;;;;;8.19;100.00;100264.34;4893859;29;20409;-83
2023/01/11 02:19:34;;;;;;;5.20;4.80;;;;;;;8.22;100.00;100262.59;4886007;29;20040;-82
2023/01/11 02:22:13;;;;;;;5.10;4.65;;;;;;;8.23;100.00;100256.47;4917385;29;20421;-82
2023/01/11 02:25:14;;;;;;;5.22;4.80;;;;;;;8.25;100.00;100258.22;4906258;29;20048;-83
2023/01/11 02:28:02;;;;;;;4.72;4.40;;;;;;;8.27;100.00;100253.84;4916766;29;20051;-83
2023/01/11 02:30:43;;;;;;;6.85;5.00;;;;;;;8.30;100.00;100247.72;4902340;29;20050;-82
2023/01/11 02:33:44;;;;;;;5.05;4.65;;;;;;;8.31;100.00;100255.63;4892958;29;20060;-82
2023/01/11 02:36:51;;;;;;;4.80;4.30;;;;;;;8.34;100.00;100253.00;4903991;29;20040;-81
2023/01/11 02:39:32;;;;;;;4.80;4.38;;;;;;;8.36;100.00;100250.41;4916125;29;23842;-83
2023/01/11 02:45:12;;;;;;;6.43;4.20;;;;;;;8.41;100.00;100248.63;4911092;29;20114;-82
2023/01/11 02:48:04;;;;;;;5.40;4.70;;;;;;;8.44;100.00;100250.44;4894580;29;20473;-82
2023/01/11 02:50:41;;;;;;;4.82;4.35;;;;;;;8.47;100.00;100260.94;4908508;29;20052;-82
2023/01/11 02:53:22;;;;;;;4.05;3.75;;;;;;;8.49;100.00;100253.97;4912755;29;20052;-83
2023/01/11 02:55:51;;;;;;;;;;;;;;;8.53;100.00;100259.22;4924418;29;20048;-80
2023/01/11 02:58:21;;;;;;;4.30;3.90;;;;;;;8.55;100.00;100261.84;4933620;29;19930;-83
2023/01/11 03:00:54;;;;;;;3.10;2.80;;;;;;;8.57;100.00;100263.59;4936951;29;20044;-82
2023/01/11 03:03:29;;;;;;;3.65;2.83;;;;;;;8.61;100.00;100263.63;4886445;29;20064;-82
2023/01/11 03:06:02;;;;;;;3.15;2.95;;;;;;;8.63;100.00;100257.47;4885274;29;20533;-81
2023/01/11 03:09:07;;;;;;;3.28;3.03;;;;;;;8.66;100.00;100261.84;4915627;29;20553;-83
2023/01/11 03:15:03;;;;;;;2.80;2.60;;;;;;;8.71;100.00;100260.13;4917255;29;20055;-83
2023/01/11 03:17:43;;;;;;;3.55;3.00;;;;;;;8.74;100.00;100268.88;4927305;29;20460;-82
2023/01/11 03:20:19;;;;;;;2.75;2.55;;;;;;;8.74;100.00;100268.00;4878895;29;20056;-82
2023/01/11 03:23:34;;;;;;;2.85;1.98;;;;;;;8.75;100.00;100273.28;4910424;29;20056;-83
2023/01/11 03:26:33;;;;;;;2.20;2.10;;;;;;;8.79;100.00;100274.16;4861687;29;20375;-82
2023/01/11 03:29:12;;;;;;;2.25;2.15;;;;;;;8.83;100.00;100286.41;4891352;29;20422;-82
2023/01/11 03:32:00;;;;;;;2.25;2.15;;;;;;;8.84;100.00;100280.28;4920451;29;20063;-82
2023/01/11 03:34:33;;;;;;;2.25;2.10;;;;;;;8.86;100.00;100285.53;4895541;29;20445;-83
2023/01/11 03:37:30;;;;;;;2.30;2.20;;;;;;;8.85;100.00;100292.53;4905010;29;20055;-83
2023/01/11 03:40:02;;;;;;;2.85;2.65;;;;;;;8.85;100.00;100295.19;4918679;29;20058;-83
2023/01/11 03:43:09;;;;;;;3.35;2.40;;;;;;;8.86;100.00;100299.53;4907604;29;20044;-82
2023/01/11 03:45:25;;;;;;;2.88;2.35;;;;;;;8.86;100.00;100296.91;4913762;29;20055;-83
2023/01/11 03:47:54;;;;;;;4.13;2.50;;;;;;;8.87;100.00;100293.41;4917228;29;20040;-82
2023/01/11 03:50:22;;;;;;;3.55;2.47;;;;;;;8.88;100.00;100296.91;4890520;29;20047;-82
2023/01/11 03:52:51;;;;;;;2.30;2.10;;;;;;;8.91;100.00;100305.69;4919573;29;20040;-81
2023/01/11 03:55:23;;;;;;;2.17;1.90;;;;;;;8.91;100.00;100318.81;4898962;29;20048;-82
2023/01/11 03:57:53;;;;;;;2.10;2.00;;;;;;;8.92;100.00;100317.97;4898346;29;20043;-82
2023/01/11 04:00:21;;;;;;;2.00;1.90;;;;;;;8.93;100.00;100316.22;4918762;29;20055;-81
2023/01/11 04:02:49;;;;;;;2.33;2.00;;;;;;;8.92;100.00;100322.31;4932754;29;20048;-82
2023/01/11 04:05:16;;;;;;;2.08;1.98;;;;;;;8.94;100.00;100321.47;4864771;29;22392;-82
2023/01/11 04:07:43;;;;;;;1.98;1.60;;;;;;;8.94;100.00;100328.44;4890248;29;20052;-81
2023/01/11 04:10:11;;;;;;;1.85;1.63;;;;;;;8.95;100.00;100333.72;4917567;29;20520;-81
2023/01/11 04:12:38;;;;;;;1.75;1.60;;;;;;;8.96;100.00;100334.63;4884785;29;20182;-81
2023/01/11 04:15:08;;;;;;;1.77;1.67;;;;;;;8.96;100.00;100332.84;4893668;29;20421;-81
2023/01/11 04:17:35;;;;;;;1.90;1.80;;;;;;;8.96;100.00;100332.84;4908027;29;20048;-81
2023/01/11 04:20:03;;;;;;;4.38;2.00;;;;;;;8.97;100.00;100344.25;4897521;29;20055;-81
2023/01/11 04:22:30;;;;;;;6.13;2.70;;;;;;;8.98;100.00;100340.75;4911250;29;20051;-82
2023/01/11 04:24:58;;;;;;;4.63;2.28;;;;;;;9.01;100.00;100353.88;4877815;29;20044;-81
2023/01/11 04:27:25;;;;;;;2.70;2.10;;;;;;;9.04;100.00;100363.53;4914368;29;20054;-82
2023/01/11 04:29:53;;;;;;;7.63;2.28;;;;;;;9.10;100.00;100355.66;4908106;29;20051;-82
2023/01/11 04:32:21;;;;;;;7.43;3.40;;;;;;;9.12;100.00;100357.41;4930621;29;20048;-82
2023/01/11 04:34:49;;;;;;;4.47;3.30;;;;;;;9.16;100.00;100353.03;4921055;29;20044;-83
2023/01/11 04:37:16;;;;;;;11.18;4.13;;;;;;;9.17;100.00;100358.28;4893748;29;20048;-83
2023/01/11 04:39:44;;;;;;;10.50;3.47;;;;;;;9.18;100.00;100357.41;4889309;29;20052;-84
2023/01/11 04:42:17;;;;;;;14.02;3.40;;;;;;;9.16;100.00;100358.28;4866313;29;20059;-82
2023/01/11 04:44:47;;;;;;;8.73;2.78;;;;;;;9.13;100.00;100366.16;4889521;29;20126;-82
2023/01/11 04:47:16;;;;;;;14.32;3.45;;;;;;;9.08;100.00;100374.03;4912167;29;20059;-83
2023/01/11 04:49:44;;;;;;;11.90;2.80;;;;;;;9.03;100.00;100377.53;4898871;29;20040;-81
2023/01/11 04:52:13;;;;;;;14.27;2.53;;;;;;;9.00;100.00;100380.16;4874889;29;20052;-82
2023/01/11 04:54:41;;;;;;;9.88;2.92;;;;;;;8.97;100.00;100388.91;4908030;29;20055;-81
2023/01/11 04:57:13;;;;;;;9.90;2.58;;;;;;;8.96;100.00;100384.53;4898861;29;20409;-84
2023/01/11 04:59:41;;;;;;;9.55;2.30;;;;;;;8.92;100.00;100388.91;4906496;29;20391;-84
2023/01/11 05:02:08;;;;;;;8.43;2.10;;;;;;;8.90;100.00;100398.53;4886001;29;20048;-80
2023/01/11 05:04:37;;;;;;;10.85;2.88;;;;;;;8.88;100.00;100389.75;4898833;29;20508;-82
2023/01/11 05:07:06;;;;;;;7.03;2.35;;;;;;;8.86;100.00;100399.38;4907100;29;20059;-81
2023/01/11 05:09:34;;;;;;;11.30;2.17;;;;;;;8.83;100.00;100398.50;4888231;29;20428;-81
2023/01/11 05:12:02;;;;;;;9.77;2.35;;;;;;;8.80;100.00;100403.75;4899375;29;20416;-82
2023/01/11 05:14:29;;;;;;;8.95;3.10;;;;;;;8.78;100.00;100415.13;4930345;29;20051;-81
2023/01/11 05:16:57;;;;;;;13.55;2.60;;;;;;;8.77;100.00;100418.66;4887362;29;20060;-81
2023/01/11 05:19:27;;;;;;;9.38;1.90;;;;;;;8.75;100.00;100420.38;4919743;29;20047;-81
2023/01/11 05:21:55;;;;;;;9.05;2.50;;;;;;;8.72;100.00;100420.38;4914844;29;20070;-81
2023/01/11 05:24:22;;;;;;;11.35;2.42;;;;;;;8.70;100.00;100434.38;4900448;29;20063;-83
2023/01/11 05:26:51;;;;;;;9.60;2.58;;;;;;;8.68;100.00;100433.50;4889083;29;20406;-82
2023/01/11 05:29:19;;;;;;;13.00;2.83;;;;;;;8.66;100.00;100435.22;4891252;29;20129;-81
2023/01/11 05:31:47;;;;;;;11.15;1.92;;;;;;;8.62;100.00;100436.97;4916312;29;20052;-81
2023/01/11 05:34:16;;;;;;;8.48;3.03;;;;;;;8.58;100.00;100438.69;4893717;29;20056;-81
2023/01/11 05:36:44;;;;;;;9.65;2.05;;;;;;;8.57;100.00;100436.06;4929132;29;20048;-81
2023/01/11 05:39:13;;;;;;;11.20;2.13;;;;;;;8.54;100.00;100450.06;4878355;29;20044;-81
2023/01/11 05:41:40;;;;;;;17.23;2.40;;;;;;;8.53;100.00;100450.06;4918049;29;20485;-81
2023/01/11 05:47:11;;;;;;;14.75;2.30;;;;;;;8.50;100.00;100455.28;4856647;29;20465;-81
2023/01/11 05:49:39;;;;;;;8.65;2.15;;;;;;;8.49;100.00;100443.91;4896755;29;20059;-82
2023/01/11 05:52:06;;;;;;;10.85;2.72;;;;;;;8.48;100.00;100447.38;4927558;29;20055;-81
2023/01/11 05:54:34;;;;;;;11.05;1.90;;;;;;;8.48;100.00;100457.03;4888336;29;20063;-85
2023/01/11 05:57:02;;;;;;;13.38;2.30;;;;;;;8.48;100.00;100459.66;4877642;29;20044;-82
2023/01/11 05:59:29;;;;;;;10.48;2.70;;;;;;;8.47;100.00;100465.75;4920381;29;20052;-83
2023/01/11 06:01:58;;;;;;;9.32;1.83;;;;;;;8.47;100.00;100463.13;4893878;29;20050;-82
2023/01/11 06:04:29;;;;;;;9.23;2.03;;;;;;;8.44;100.00;100460.50;4898352;29;20058;-81
2023/01/11 06:06:56;;;;;;;9.45;1.92;;;;;;;8.42;100.00;100468.38;4914749;29;20055;-81
2023/01/11 06:09:23;;;;;;;12.13;2.15;;;;;;;8.42;100.00;100467.50;4904123;29;20522;-82
2023/01/11 06:11:51;;;;;;;10.73;2.28;;;;;;;8.40;100.00;100468.31;4874094;29;20059;-82
2023/01/11 06:14:18;;;;;;;9.35;2.40;;;;;;;8.42;100.00;100470.13;4920035;29;20067;-82
2023/01/11 06:16:45;;;;;;;6.90;2.30;;;;;;;8.43;100.00;100464.88;4886447;29;20058;-82
2023/01/11 06:19:14;;;;;;;12.15;2.72;;;;;;;8.41;100.00;100469.19;4871138;29;20059;-82
2023/01/11 06:21:41;;;;;;;16.23;2.53;;;;;;;8.43;100.00;100463.97;4925670;29;20056;-82
2023/01/11 06:24:09;;;;;;;8.80;2.17;;;;;;;8.45;100.00;100485.88;4904665;29;20052;-82
2023/01/11 06:26:37;;;;;;;12.93;3.10;;;;;;;8.44;100.00;100487.63;4892420;29;20044;-82
2023/01/11 06:29:07;;;;;;;;;;;;;;;8.43;100.00;100479.75;4913200;29;20047;-81
2023/01/11 06:31:34;;;;;;;12.98;2.70;;;;;;;8.44;100.00;100492.00;4922198;29;20440;-83
2023/01/11 06:34:02;;;;;;;13.02;2.60;;;;;;;8.42;100.00;100489.38;4888850;29;20059;-82
2023/01/11 06:36:29;;;;;;;10.70;2.88;;;;;;;8.44;100.00;100505.16;4921879;29;20047;-81
2023/01/11 06:38:57;;;;;;;17.70;2.92;;;;;;;8.44;100.00;100503.38;4932491;29;20047;-83
2023/01/11 06:41:24;;;;;;;13.65;2.72;;;;;;;8.45;100.00;100502.53;4887281;29;22624;-83
2023/01/11 06:43:51;;;;;;;16.08;3.40;;;;;;;8.47;100.00;100500.78;4885943;29;20054;-81
2023/01/11 06:46:19;;;;;;;19.33;3.78;;;;;;;8.50;100.00;100510.44;4899891;29;20052;-81
2023/01/11 06:48:47;;;;;;;24.27;3.38;;;;;;;8.50;100.00;100519.16;4899136;29;20414;-81
2023/01/11 06:51:15;;;;;;;14.40;3.03;;;;;;;8.52;100.00;100522.69;4887481;29;20052;-82
2023/01/11 06:53:43;;;;;;;20.40;3.63;;;;;;;8.53;100.00;100513.94;4896997;29;20060;-82
2023/01/11 06:56:13;;;;;;;20.05;3.88;;;;;;;8.54;100.00;100515.72;4854865;29;20060;-83
2023/01/11 06:58:41;;;;;;;17.17;3.83;;;;;;;8.54;100.00;100520.06;4889229;29;20075;-84
2023/01/11 07:01:10;;;;;;;22.55;3.10;;;;;;;8.55;100.00;100529.72;4905452;29;20055;-81
2023/01/11 07:03:38;;;;;;;16.65;2.85;;;;;;;8.52;100.00;100538.44;4885337;29;20409;-82
2023/01/11 07:06:06;;;;;;;17.10;2.75;;;;;;;8.52;100.00;100540.19;4889413;29;20494;-79
2023/01/11 07:08:34;;;;;;;18.35;3.72;;;;;;;8.50;100.00;100532.31;4906069;29;20062;-81
2023/01/11 07:11:01;;;;;;;22.80;3.40;;;;;;;8.49;100.00;100530.56;4878481;29;20078;-81
2023/01/11 07:13:28;;;;;;;12.95;2.67;;;;;;;8.50;100.00;100542.81;4860075;29;20047;-82
2023/01/11 07:15:56;;;;;;;20.98;3.58;;;;;;;8.51;100.00;100546.34;4902478;29;20066;-80
2023/01/11 07:18:24;;;;;;;27.02;3.72;;;;;;;8.49;100.00;100542.81;4904909;29;20047;-80
2023/01/11 07:20:51;;;;;;;20.08;3.60;;;;;;;8.50;100.00;100549.81;4915089;29;20065;-79
2023/01/11 07:23:19;;;;;;;15.40;2.70;;;;;;;8.49;100.00;100558.59;4898701;29;20067;-80
2023/01/11 07:25:49;;;;;;;23.88;4.47;;;;;;;8.47;100.00;100555.94;4903718;29;20055;-82
2023/01/11 07:28:16;;;;;;;22.48;3.47;;;;;;;8.45;100.00;100557.69;4858910;29;20521;-81
2023/01/11 07:30:44;;;;;;;17.38;3.28;;;;;;;8.43;100.00;100550.63;4889841;29;20051;-80
2023/01/11 07:33:25;;;;;;;19.42;3.33;;;;;;;8.38;100.00;100554.06;4878657;29;20063;-81
2023/01/11 07:35:54;;;;;;;19.42;3.25;;;;;;;8.34;100.00;100548.81;4881972;29;20779;-81
2023/01/11 07:38:23;;;;;;;14.95;3.33;;;;;;;8.30;100.00;100554.88;4908450;29;20064;-81
2023/01/11 07:40:50;;;;;;;19.02;3.05;;;;;;;8.26;100.00;100564.50;4898929;29;20055;-81
2023/01/11 07:43:20;;;;;;;16.23;3.30;;;;;;;8.24;100.00;100562.72;4907771;29;20059;-80
2023/01/11 07:45:50;;;;;;;18.83;3.03;;;;;;;8.23;100.00;100555.72;4880519;29;20425;-82
2023/01/11 07:48:25;;;;;;;18.95;3.67;;;;;;;8.22;100.00;100570.56;4925638;29;20052;-82
2023/01/11 07:50:54;;;;;;;22.23;3.30;;;;;;;8.21;100.00;100574.06;4880695;29;20070;-81
2023/01/11 07:53:24;;;;;;;16.90;3.50;;;;;;;8.20;100.00;100569.69;4922912;29;20047;-80
2023/01/11 07:55:54;;;;;;;;;;;;;;;8.20;100.00;100572.31;4923146;29;20058;-81
2023/01/11 07:58:21;;;;;;;17.65;2.75;;;;;;;8.22;100.00;100588.06;4922835;29;19923;-83
2023/01/11 08:00:49;;;;;;;15.32;3.10;;;;;;;8.20;100.00;100588.06;4865204;29;20040;-81
2023/01/11 08:03:16;;;;;;;19.80;3.05;;;;;;;8.19;100.00;100587.19;4916209;29;20055;-79
2023/01/11 08:05:48;;;;;;;17.63;3.45;;;;;;;8.19;100.00;100600.31;4904343;29;20048;-79
2023/01/11 08:08:15;;;;;;;9.95;2.50;;;;;;;8.19;100.00;100608.19;4908060;29;20063;-80
2023/01/11 08:10:43;;;;;;;9.30;2.40;;;;;;;8.19;100.00;100607.31;4907797;29;20422;-79
2023/01/11 08:16:00;;;;;;;18.15;2.10;;;;;;;8.14;100.00;100615.13;4857229;29;20060;-79
2023/01/11 08:18:27;;;;;;;7.13;1.88;;;;;;;8.13;100.00;100623.00;4887363;29;20056;-79
2023/01/11 08:20:55;;;;;;;9.27;1.60;;;;;;;8.10;100.00;100623.84;4884151;29;20047;-79
2023/01/11 08:23:22;;;;;;;14.40;2.17;;;;;;;8.07;100.00;100625.56;4907713;29;20107;-78
2023/01/11 08:25:55;;;;;;;7.38;1.60;;;;;;;8.08;100.00;100636.06;4895540;29;20044;-78
2023/01/11 08:28:23;;;;;;;11.32;2.00;;;;;;;8.06;100.00;100637.81;4919622;29;20052;-79
2023/01/11 08:30:50;;;;;;;8.88;1.80;;;;;;;8.06;100.00;100635.19;4854613;29;20051;-80
2023/01/11 08:33:18;;;;;;;13.32;2.35;;;;;;;8.07;100.00;100630.81;4895845;29;20058;-79
2023/01/11 08:35:45;;;;;;;10.32;2.17;;;;;;;8.05;100.00;100630.78;4899532;29;20051;-79
2023/01/11 08:38:12;;;;;;;9.90;2.65;;;;;;;8.05;100.00;100643.91;4885336;29;20059;-79
2023/01/11 08:40:40;;;;;;;7.13;1.92;;;;;;;8.05;100.00;100651.78;4869486;29;20528;-78
2023/01/11 08:43:08;;;;;;;10.10;2.60;;;;;;;8.05;100.00;100650.91;4917030;29;20043;-79
2023/01/11 08:45:36;;;;;;;9.45;1.90;;;;;;;8.05;100.00;100656.16;4873707;29;20052;-79
2023/01/11 08:48:04;;;;;;;9.88;1.90;;;;;;;8.02;100.00;100646.50;4885333;29;20501;-79
2023/01/11 08:50:31;;;;;;;10.80;2.17;;;;;;;8.03;100.00;100653.50;4893823;29;20059;-79
2023/01/11 08:52:59;;;;;;;12.45;2.30;;;;;;;8.00;100.00;100654.38;4873613;29;20059;-79
2023/01/11 08:55:29;;;;;;;9.65;2.28;;;;;;;7.98;100.00;100658.72;4925085;29;20501;-79
2023/01/11 08:57:57;;;;;;;11.43;2.55;;;;;;;7.98;100.00;100665.72;4890854;29;20138;-80
2023/01/11 09:00:25;;;;;;;12.93;2.00;;;;;;;7.95;100.00;100669.16;4879569;29;20075;-79
2023/01/11 09:02:52;;;;;;;11.15;2.22;;;;;;;7.95;100.00;100663.06;4845907;29;20051;-80
2023/01/11 09:05:20;;;;;;;9.23;2.00;;;;;;;7.96;100.00;100670.94;4893862;29;20036;-80
2023/01/11 09:07:47;;;;;;;18.70;3.83;;;;;;;7.97;100.00;100670.06;4891113;29;20405;-78
2023/01/11 09:10:15;;;;;;;12.00;2.30;;;;;;;7.97;100.00;100672.69;4883523;29;20048;-78
2023/01/11 09:12:42;;;;;;;9.02;2.25;;;;;;;7.99;100.00;100676.22;4905718;29;20044;-77
2023/01/11 09:15:10;;;;;;;13.07;2.20;;;;;;;8.00;100.00;100677.09;4883864;29;20055;-78
2023/01/11 09:17:37;;;;;;;12.82;2.33;;;;;;;7.98;100.00;100681.47;4885540;29;20516;-78
2023/01/11 09:20:05;;;;;;;17.70;3.08;;;;;;;7.97;100.00;100684.94;4889690;29;20771;-80
2023/01/11 09:22:33;;;;;;;14.90;2.92;;;;;;;7.95;100.00;100676.16;4909010;29;20047;-80
2023/01/11 09:25:01;;;;;;;18.80;3.20;;;;;;;7.92;100.00;100681.38;4884667;29;20071;-78
2023/01/11 09:27:29;;;;;;;15.65;2.50;;;;;;;7.89;100.00;100682.22;4913003;29;20062;-80
2023/01/11 09:29:56;;;;;;;11.38;2.35;;;;;;;7.90;100.00;100688.34;4909189;29;20039;-78
2023/01/11 09:32:23;;;;;;;16.85;3.60;;;;;;;7.93;100.00;100697.13;4846326;29;20163;-79
2023/01/11 09:34:56;;;;;;;14.57;2.50;;;;;;;7.96;100.00;100701.56;4875810;29;20079;-78
2023/01/11 09:37:23;;;;;;;13.52;2.17;;;;;;;7.99;100.00;100704.19;4911818;29;20371;-79
2023/01/11 09:39:51;;;;;;;15.40;2.85;;;;;;;7.99;100.00;100701.56;4873545;29;20051;-79
2023/01/11 09:42:37;;;;;;;10.68;2.25;;;;;;;7.98;100.00;100703.31;4887093;29;20056;-79
2023/01/11 09:45:11;;;;;;;12.25;2.72;;;;;;;7.93;100.00;100715.50;4888509;29;20051;-79
2023/01/11 09:47:59;;;;;;;15.00;2.92;;;;;;;7.90;100.00;100714.59;4892867;29;20043;-80
2023/01/11 09:50:30;;;;;;;12.07;2.45;;;;;;;7.88;100.00;100722.47;4895449;29;20067;-79
2023/01/11 09:53:03;;;;;;;15.65;2.83;;;;;;;7.88;100.00;100722.47;4915912;29;20064;-79
2023/01/11 09:55:42;;;;;;;16.85;2.83;;;;;;;7.91;100.00;100722.47;4896273;29;20051;-79
2023/01/11 09:58:28;;;;;;;15.30;2.83;;;;;;;7.96;100.00;100719.94;4920867;29;20456;-80
2023/01/11 10:01:11;;;;;;;14.50;2.40;;;;;;;7.99;100.00;100726.06;4902114;29;20055;-79
2023/01/11 10:04:06;;;;;;;10.20;2.15;;;;;;;8.04;100.00;100730.50;4871853;29;20066;-79
2023/01/11 10:06:54;;;;;;;14.40;2.55;;;;;;;8.10;100.00;100726.19;4916787;29;20055;-79
2023/01/11 10:09:55;;;;;;;7.18;2.00;;;;;;;8.17;100.00;100722.78;4880909;29;20086;-79
2023/01/11 10:13:03;;;;;;;14.50;3.00;;;;;;;8.23;100.00;100721.09;4901199;29;20052;-79
2023/01/11 10:15:59;;;;;;;12.43;2.28;;;;;;;8.25;100.00;100729.88;4900901;29;20048;-79
2023/01/11 10:19:03;;;;;;;11.10;1.80;;;;;;;8.26;100.00;100732.50;4873571;29;20055;-78
2023/01/11 10:22:30;;;;;;;16.77;3.08;;;;;;;8.31;100.00;100728.16;4887854;29;20072;-80
2023/01/11 10:25:25;;;;;;;14.90;3.25;;;;;;;8.36;100.00;100730.88;4895762;29;20063;-79
2023/01/11 10:28:04;;;;;;;16.58;3.03;;;;;;;8.40;100.00;100724.78;4916375;29;20424;-80
2023/01/11 10:37:22;;;;;;;11.63;2.40;;;;;;;8.50;100.00;100724.00;4918330;29;20058;-82
2023/01/11 10:43:15;;;;;;;7.88;3.05;;;;;;;8.56;100.00;100731.97;4903529;29;20510;-81
2023/01/11 10:45:49;;;;;;;15.43;3.05;;;;;;;8.61;100.00;100725.88;4906452;29;20070;-80
2023/01/11 10:48:38;;;;;;;10.60;2.53;;;;;;;8.64;100.00;100737.31;4892103;29;20535;-80
2023/01/11 10:51:28;;;;;;;15.48;3.50;;;;;;;8.65;100.00;100727.66;4890845;29;20074;-80
2023/01/11 10:54:15;;;;;;;16.58;2.75;;;;;;;8.68;100.00;100732.97;4896775;29;20051;-80
2023/01/11 10:57:21;;;;;;;12.45;2.38;;;;;;;8.71;100.00;100722.47;4907065;29;20405;-80
2023/01/11 10:59:55;;;;;;;12.52;2.10;;;;;;;8.75;100.00;100724.25;4894752;29;20048;-79
2023/01/11 11:02:48;;;;;;;10.55;3.25;;;;;;;8.74;100.00;100719.88;4894246;29;20052;-79
2023/01/11 11:06:18;;;;;;;7.75;2.63;;;;;;;8.78;100.00;100725.16;4870170;29;20044;-81
2023/01/11 11:08:58;;;;;;;15.57;2.30;;;;;;;8.83;100.00;100727.84;4864597;29;20060;-80
2023/01/11 11:11:40;;;;;;;13.18;2.10;;;;;;;8.89;100.00;100729.63;4850699;29;20482;-80
2023/01/11 11:14:17;;;;;;;8.45;1.98;;;;;;;8.97;100.00;100738.44;4898820;29;20438;-79
2023/01/11 11:16:56;;;;;;;9.55;2.85;;;;;;;9.03;100.00;100740.25;4904834;29;20429;-79
2023/01/11 11:19:29;;;;;;;18.13;3.50;;;;;;;9.03;100.00;100740.25;4901688;29;20498;-79
2023/01/11 11:21:56;;;;;;;8.05;2.08;;;;;;;9.03;100.00;100745.50;4895341;29;20044;-80
2023/01/11 11:24:45;;;;;;;9.73;2.42;;;;;;;9.03;100.00;100743.75;4886960;29;20408;-79
2023/01/11 11:27:25;;;;;;;11.20;2.33;;;;;;;9.00;100.00;100753.34;4907398;29;20047;-78
2023/01/11 11:29:55;;;;;;;14.73;2.53;;;;;;;9.01;100.00;100752.50;4878394;29;20052;-79
2023/01/11 11:32:35;;;;;;;9.68;2.17;;;;;;;9.06;100.00;100749.03;4908098;29;20044;-78
2023/01/11 11:35:06;;;;;;;15.40;2.78;;;;;;;9.04;100.00;100749.91;4864743;29;20048;-78
2023/01/11 11:37:39;;;;;;;9.85;2.40;;;;;;;9.05;100.00;100754.28;4900962;29;20074;-79
2023/01/11 11:40:35;;;;;;;8.00;1.65;;;;;;;9.01;100.00;100749.88;4910752;29;20060;-79
2023/01/11 11:43:13;;;;;;;10.13;1.95;;;;;;;9.01;100.00;100757.75;4890975;29;20047;-79
2023/01/11 11:45:50;;;;;;;15.05;2.67;;;;;;;9.04;100.00;100760.41;4887955;29;20063;-80
2023/01/11 11:48:18;;;;;;;10.65;2.30;;;;;;;9.03;100.00;100754.25;4912272;29;20055;-81
2023/01/11 11:50:48;;;;;;;14.07;2.47;;;;;;;9.07;100.00;100758.66;4829116;29;20483;-79
2023/01/11 11:53:42;;;;;;;12.07;2.28;;;;;;;9.04;100.00;100752.53;4894553;29;20728;-79
2023/01/11 11:56:28;;;;;;;8.77;2.08;;;;;;;9.02;100.00;100762.13;4905000;29;20071;-79
2023/01/11 11:58:57;;;;;;;7.75;1.98;;;;;;;9.04;100.00;100758.66;4914381;29;20044;-79
2023/01/11 12:01:32;;;;;;;10.27;2.38;;;;;;;9.06;100.00;100753.44;4879254;29;20055;-79
2023/01/11 12:04:22;;;;;;;14.07;2.25;;;;;;;9.11;100.00;100754.31;4911501;29;20386;-79
2023/01/11 12:07:06;;;;;;;15.27;2.97;;;;;;;9.18;100.00;100762.25;4854142;29;20054;-79
2023/01/11 12:09:35;;;;;;;10.02;2.55;;;;;;;9.22;100.00;100760.53;4906365;29;20054;-79
2023/01/11 12:12:03;;;;;;;21.25;3.10;;;;;;;9.26;100.00;100758.81;4890586;29;20059;-79
2023/01/11 12:14:34;;;;;;;12.73;2.30;;;;;;;9.27;100.00;100757.97;4877536;29;20047;-79
2023/01/11 12:17:22;;;;;;;13.05;2.88;;;;;;;9.23;100.00;100775.47;4904396;29;20056;-78
2023/01/11 12:19:50;;;;;;;14.85;2.88;;;;;;;9.20;100.00;100770.16;4904877;29;20048;-79
2023/01/11 12:22:23;;;;;;;16.90;3.13;;;;;;;9.17;100.00;100764.91;4882336;29;20059;-78